首页
METAR-TAF:

METAR-TAF

机场 :

卡尔斯鲁厄/巴登-巴登机场

巴登-巴登, 德国

纬度: 48-46-43N, 经度: 008-04-47E, 海拔: 124米

当前天气观测

该预报发布于40分钟前的20:50 UTC
风速8节,风向南转西南
温度 14°C
湿度 88%
气压 1006 hPa
能见度10公里或以上
1500米以下无云,无积雨云

METAR: EDSB 062050Z 21008KT CAVOK 14/12 Q1006

时间: 23:30 (21:30 UTC)

预报

该预报发布于4小时和30分钟前的17:00 UTC
预报有效从06日的 18点(UTC)到 07日的 18点(UTC)
风速8节,风向南转西南
能见度10公里或以上
散云层高于4000英尺
成为
从 06日的 20点(UTC)到 06日的 23点(UTC)
风速3节,风向多变
成为
从 07日的 08点(UTC)到 07日的 11点(UTC)
风速5节,风向西

TAF: EDSB 061700Z 0618/0718 21008KT 9999 SCT040 BECMG 0620/0623 VRB03KT BECMG 0708/0711 26005KT

超过4000个机场的气象观测和天气预报(METAR&TAF报告)。

可查询的气象台以黄色和红色小点在地图上表示。

将鼠标移到小点上方,可查看气象台名称。

然后点击查看天气观测和预报。

如需切换地图:点击带黑十字的绿色按钮放大地图;点击带横线的绿色按钮缩小地图;或者点击绿色箭头查看邻近地区的地图。


METAR-TAF: